createdAt,value
2017-07-15T00:00:49.400Z,13.80
2017-07-15T00:03:16.960Z,13.80
2017-07-15T00:05:44.483Z,13.80
2017-07-15T00:08:11.974Z,13.80
2017-07-15T00:10:39.471Z,13.90
2017-07-15T00:13:07.090Z,13.90
2017-07-15T00:15:34.665Z,13.90
2017-07-15T00:18:02.418Z,13.90
2017-07-15T00:20:29.903Z,13.90
2017-07-15T00:22:57.441Z,13.90
2017-07-15T00:25:25.000Z,13.90
2017-07-15T00:27:52.571Z,13.80
2017-07-15T00:30:21.016Z,13.90
2017-07-15T00:32:49.279Z,13.90
2017-07-15T00:35:16.872Z,13.80
2017-07-15T00:37:44.391Z,13.90
2017-07-15T00:40:11.995Z,13.90
2017-07-15T00:42:39.560Z,13.90
2017-07-15T00:45:07.114Z,13.90
2017-07-15T00:47:34.671Z,13.90
2017-07-15T00:50:02.230Z,14.00
2017-07-15T00:52:29.727Z,14.00
2017-07-15T00:54:57.348Z,13.90
2017-07-15T00:57:24.870Z,14.00
2017-07-15T00:59:52.456Z,14.00
2017-07-15T01:02:20.720Z,14.10
2017-07-15T01:04:48.983Z,14.00
2017-07-15T01:07:16.502Z,14.00
2017-07-15T01:09:44.042Z,14.10
2017-07-15T01:12:11.605Z,14.10
2017-07-15T01:14:39.099Z,14.10
2017-07-15T01:17:06.723Z,14.10
2017-07-15T01:19:34.227Z,14.10
2017-07-15T01:22:01.835Z,14.10
2017-07-15T01:24:29.359Z,14.00
2017-07-15T01:26:56.855Z,13.90
2017-07-15T01:29:24.351Z,13.90
2017-07-15T01:31:51.987Z,13.80
2017-07-15T01:34:19.483Z,13.70
2017-07-15T01:36:47.023Z,13.70
2017-07-15T01:39:14.559Z,13.60
2017-07-15T01:41:42.055Z,13.60
2017-07-15T01:44:09.694Z,13.60
2017-07-15T01:46:37.239Z,13.60
2017-07-15T01:49:04.771Z,13.60
2017-07-15T01:51:33.034Z,13.50
2017-07-15T01:54:00.576Z,13.50
2017-07-15T01:56:28.106Z,13.50
2017-07-15T01:58:55.651Z,13.50
2017-07-15T02:01:23.210Z,13.50
2017-07-15T02:03:50.707Z,13.50
2017-07-15T02:06:18.336Z,13.50
2017-07-15T02:08:45.992Z,13.50
2017-07-15T02:11:13.487Z,13.50
2017-07-15T02:13:41.112Z,13.50
2017-07-15T02:16:08.675Z,13.50
2017-07-15T02:18:36.200Z,13.60
2017-07-15T02:21:04.511Z,13.50
2017-07-15T02:23:32.039Z,13.50
2017-07-15T02:26:00.347Z,13.60
2017-07-15T02:28:27.912Z,13.50
2017-07-15T02:30:55.467Z,13.60
2017-07-15T02:33:22.967Z,13.60
2017-07-15T02:35:50.495Z,13.60
2017-07-15T02:38:17.991Z,13.60
2017-07-15T02:40:45.499Z,13.60
2017-07-15T02:43:13.065Z,13.60
2017-07-15T02:45:40.619Z,13.60
2017-07-15T02:48:08.147Z,13.70
2017-07-15T02:50:35.747Z,13.70
2017-07-15T02:53:03.271Z,13.70
2017-07-15T02:55:31.564Z,13.70
2017-07-15T02:57:59.956Z,13.60
2017-07-15T03:00:27.519Z,13.70
2017-07-15T03:02:55.183Z,13.70
2017-07-15T03:05:22.683Z,13.70
2017-07-15T03:07:50.195Z,13.70
2017-07-15T03:10:17.755Z,13.70
2017-07-15T03:12:45.287Z,13.70
2017-07-15T03:15:13.570Z,13.80
2017-07-15T03:17:41.878Z,13.80
2017-07-15T03:20:09.433Z,13.80
2017-07-15T03:22:36.926Z,13.80
2017-07-15T03:25:04.455Z,13.80
2017-07-15T03:27:35.710Z,13.80
2017-07-15T03:30:03.255Z,13.80
2017-07-15T03:32:30.814Z,13.80
2017-07-15T03:34:58.385Z,13.80
2017-07-15T03:37:25.939Z,13.90
2017-07-15T03:39:53.499Z,13.80
2017-07-15T03:42:21.039Z,13.80
2017-07-15T03:44:49.303Z,13.90
2017-07-15T03:47:17.562Z,13.80
2017-07-15T03:49:45.167Z,13.80
2017-07-15T03:52:12.732Z,13.80
2017-07-15T03:54:40.290Z,13.80
2017-07-15T03:57:07.949Z,13.80
2017-07-15T03:59:35.447Z,13.90
2017-07-15T04:02:02.978Z,13.90
2017-07-15T04:04:30.527Z,13.90
2017-07-15T04:06:58.088Z,13.80
2017-07-15T04:09:25.620Z,13.90
2017-07-15T04:11:53.878Z,13.90
2017-07-15T04:14:21.483Z,13.90
2017-07-15T04:16:49.044Z,13.90
2017-07-15T04:19:16.543Z,13.90
2017-07-15T04:21:44.163Z,14.00
2017-07-15T04:24:11.666Z,14.00
2017-07-15T04:26:39.160Z,14.00
2017-07-15T04:29:07.464Z,14.00
2017-07-15T04:31:35.303Z,14.00
2017-07-15T04:34:03.607Z,13.90
2017-07-15T04:36:31.163Z,13.90
2017-07-15T04:38:58.739Z,13.90
2017-07-15T04:41:26.287Z,13.90
2017-07-15T04:43:53.815Z,13.80
2017-07-15T04:46:22.119Z,13.80
2017-07-15T04:48:49.655Z,13.80
2017-07-15T04:51:17.955Z,13.80
2017-07-15T04:53:45.451Z,13.80
2017-07-15T04:56:12.980Z,13.80
2017-07-15T04:58:40.484Z,13.80
2017-07-15T05:01:08.100Z,13.90
2017-07-15T05:03:35.598Z,13.90
2017-07-15T05:06:03.124Z,13.90
2017-07-15T05:08:30.647Z,13.80
2017-07-15T05:10:58.906Z,14.00
2017-07-15T05:13:26.507Z,13.90
2017-07-15T05:15:54.067Z,14.00
2017-07-15T05:18:21.564Z,14.00
2017-07-15T05:20:49.091Z,14.10
2017-07-15T05:23:16.590Z,14.10
2017-07-15T05:25:44.104Z,14.20
2017-07-15T05:28:11.663Z,14.40
2017-07-15T05:30:39.222Z,14.50
2017-07-15T05:33:06.987Z,14.60
2017-07-15T05:35:34.494Z,14.70
2017-07-15T05:38:01.990Z,14.80
2017-07-15T05:40:30.297Z,15.10
2017-07-15T05:42:57.791Z,15.00
2017-07-15T05:45:25.300Z,15.10
2017-07-15T05:47:52.859Z,15.20
2017-07-15T05:50:20.419Z,15.30
2017-07-15T05:52:47.983Z,15.40
2017-07-15T05:55:15.540Z,15.30
2017-07-15T05:57:43.042Z,15.40
2017-07-15T06:00:10.574Z,15.40
2017-07-15T06:02:38.118Z,15.50
2017-07-15T06:05:05.676Z,15.60
2017-07-15T06:07:33.198Z,15.70
2017-07-15T06:10:01.437Z,15.80
2017-07-15T06:12:28.983Z,15.80
2017-07-15T06:14:56.532Z,15.90
2017-07-15T06:17:24.095Z,15.90
2017-07-15T06:19:51.599Z,15.90
2017-07-15T06:22:19.102Z,16.00
2017-07-15T06:24:46.650Z,16.10
2017-07-15T06:27:14.920Z,16.10
2017-07-15T06:29:43.232Z,16.10
2017-07-15T06:32:10.759Z,16.10
2017-07-15T06:34:39.059Z,16.00
2017-07-15T06:37:06.624Z,16.00
2017-07-15T06:39:34.160Z,15.90
2017-07-15T06:42:02.427Z,16.00
2017-07-15T06:44:30.719Z,16.10
2017-07-15T06:46:58.296Z,16.10
2017-07-15T06:49:25.848Z,16.10
2017-07-15T06:51:53.410Z,16.20
2017-07-15T06:54:20.972Z,16.40
2017-07-15T06:56:48.540Z,16.50
2017-07-15T06:59:16.051Z,16.50
2017-07-15T07:01:43.600Z,16.50
2017-07-15T07:04:11.100Z,16.50
2017-07-15T07:06:38.671Z,16.50
2017-07-15T07:09:06.228Z,16.60
2017-07-15T07:11:33.791Z,16.80
2017-07-15T07:14:01.322Z,16.90
2017-07-15T07:16:29.728Z,17.10
2017-07-15T07:18:57.286Z,17.10
2017-07-15T07:21:25.051Z,17.10
2017-07-15T07:23:52.617Z,17.20
2017-07-15T07:26:20.175Z,17.40
2017-07-15T07:28:47.731Z,17.70
2017-07-15T07:31:15.236Z,17.80
2017-07-15T07:33:42.767Z,17.90
2017-07-15T07:36:10.274Z,18.00
2017-07-15T07:38:38.587Z,18.10
2017-07-15T07:41:07.327Z,18.10
2017-07-15T07:43:34.851Z,18.10
2017-07-15T07:46:02.383Z,18.20
2017-07-15T07:48:29.919Z,18.20
2017-07-15T07:50:58.231Z,18.20
2017-07-15T07:53:25.736Z,18.20
2017-07-15T07:55:53.351Z,18.20
2017-07-15T07:58:20.911Z,18.20
2017-07-15T08:00:48.467Z,18.40
2017-07-15T08:03:15.967Z,18.40
2017-07-15T08:05:43.691Z,18.40
2017-07-15T08:08:11.251Z,18.20
2017-07-15T08:10:38.818Z,18.10
2017-07-15T08:13:06.375Z,18.00
2017-07-15T08:15:33.882Z,17.90
2017-07-15T08:18:01.391Z,17.80
2017-07-15T08:20:28.927Z,17.70
2017-07-15T08:22:57.323Z,17.50
2017-07-15T08:25:24.824Z,17.50
2017-07-15T08:27:52.371Z,17.30
2017-07-15T08:30:19.875Z,17.30
2017-07-15T08:32:48.171Z,17.20
2017-07-15T08:35:15.947Z,17.20
2017-07-15T08:37:43.443Z,17.30
2017-07-15T08:40:10.964Z,17.50
2017-07-15T08:42:38.533Z,17.80
2017-07-15T08:45:06.085Z,18.00
2017-07-15T08:47:33.646Z,18.00
2017-07-15T08:50:01.185Z,17.90
2017-07-15T08:52:28.763Z,17.90
2017-07-15T08:54:56.747Z,17.90
2017-07-15T08:57:24.294Z,17.90
2017-07-15T08:59:51.839Z,17.90
2017-07-15T09:02:19.344Z,18.00
2017-07-15T09:04:46.871Z,18.20
2017-07-15T09:07:14.432Z,18.50
2017-07-15T09:09:42.005Z,18.70
2017-07-15T09:12:09.557Z,18.90
2017-07-15T09:14:37.058Z,18.80
2017-07-15T09:17:04.587Z,18.80
2017-07-15T09:19:32.119Z,18.70
2017-07-15T09:21:59.683Z,18.70
2017-07-15T09:24:27.243Z,18.80
2017-07-15T09:26:54.912Z,18.90
2017-07-15T09:29:22.476Z,19.00
2017-07-15T09:31:50.031Z,19.10
2017-07-15T09:34:17.532Z,19.10
2017-07-15T09:36:45.150Z,18.90
2017-07-15T09:39:12.716Z,18.90
2017-07-15T09:41:40.216Z,18.90
2017-07-15T09:44:07.828Z,19.00
2017-07-15T09:46:35.397Z,19.10
2017-07-15T09:49:02.961Z,19.10
2017-07-15T09:51:30.501Z,19.00
2017-07-15T09:53:58.067Z,19.10
2017-07-15T09:56:25.627Z,19.30
2017-07-15T09:58:53.151Z,19.50
2017-07-15T10:01:20.652Z,19.60
2017-07-15T10:03:48.204Z,19.60
2017-07-15T10:06:15.765Z,19.60
2017-07-15T10:08:43.328Z,19.60
2017-07-15T10:11:10.987Z,19.50
2017-07-15T10:13:38.548Z,19.60
2017-07-15T10:16:06.107Z,19.60
2017-07-15T10:18:33.632Z,19.70
2017-07-15T10:21:01.131Z,19.70
2017-07-15T10:23:29.602Z,19.80
2017-07-15T10:25:57.267Z,19.90
2017-07-15T10:28:24.779Z,20.00
2017-07-15T10:30:52.279Z,20.10
2017-07-15T10:33:19.809Z,20.20
2017-07-15T10:35:47.407Z,20.30
2017-07-15T10:38:14.970Z,20.30
2017-07-15T10:40:42.523Z,20.50
2017-07-15T10:43:10.087Z,20.60
2017-07-15T10:45:37.623Z,20.70
2017-07-15T10:48:05.891Z,21.10
2017-07-15T10:50:34.160Z,21.20
2017-07-15T10:53:01.754Z,21.20
2017-07-15T10:55:29.247Z,21.40
2017-07-15T10:57:56.774Z,21.40
2017-07-15T11:00:24.276Z,21.40
2017-07-15T11:02:51.800Z,21.30
2017-07-15T11:05:19.323Z,21.40
2017-07-15T11:07:47.631Z,21.50
2017-07-15T11:10:15.143Z,21.50
2017-07-15T11:12:43.435Z,21.40
2017-07-15T11:15:11.752Z,21.20
2017-07-15T11:17:39.251Z,21.20
2017-07-15T11:20:06.779Z,21.20
2017-07-15T11:22:34.319Z,21.10
2017-07-15T11:25:01.897Z,21.30
2017-07-15T11:27:30.995Z,21.30
2017-07-15T11:29:58.520Z,21.40
2017-07-15T11:32:26.151Z,21.30
2017-07-15T11:34:53.763Z,21.10
2017-07-15T11:37:21.292Z,21.10
2017-07-15T11:39:49.595Z,20.90
2017-07-15T11:42:17.160Z,20.90
2017-07-15T11:44:44.691Z,21.00
2017-07-15T11:47:12.233Z,21.10
2017-07-15T11:49:40.552Z,21.30
2017-07-15T11:52:08.095Z,21.30
2017-07-15T11:54:36.391Z,21.80
2017-07-15T11:57:03.887Z,21.80
2017-07-15T11:59:31.511Z,21.80
2017-07-15T12:01:59.087Z,21.80
2017-07-15T12:04:26.644Z,21.70
2017-07-15T12:06:54.176Z,21.80
2017-07-15T12:09:21.680Z,22.10
2017-07-15T12:11:49.211Z,22.20
2017-07-15T12:14:16.714Z,22.10
2017-07-15T12:16:44.252Z,22.20
2017-07-15T12:19:11.883Z,22.10
2017-07-15T12:21:39.378Z,21.90
2017-07-15T12:24:07.007Z,21.90
2017-07-15T12:26:34.904Z,22.00
2017-07-15T12:29:02.433Z,21.90
2017-07-15T12:31:29.936Z,22.00
2017-07-15T12:33:58.265Z,21.90
2017-07-15T12:36:25.811Z,21.90
2017-07-15T12:38:53.331Z,21.90
2017-07-15T12:41:20.863Z,21.80
2017-07-15T12:43:48.387Z,21.80
2017-07-15T12:46:16.656Z,21.80
2017-07-15T12:48:44.951Z,21.90
2017-07-15T12:51:12.628Z,21.90
2017-07-15T12:53:40.174Z,22.00
2017-07-15T12:56:07.743Z,22.10
2017-07-15T12:58:35.303Z,22.20
2017-07-15T13:01:02.863Z,22.20
2017-07-15T13:03:30.749Z,22.30
2017-07-15T13:05:58.275Z,22.40
2017-07-15T13:08:26.995Z,22.50
2017-07-15T13:10:54.539Z,22.50
2017-07-15T13:13:22.047Z,22.60
2017-07-15T13:15:50.209Z,22.60
2017-07-15T13:18:17.736Z,22.60
2017-07-15T13:20:45.292Z,22.60
2017-07-15T13:23:12.790Z,22.60
2017-07-15T13:25:40.411Z,22.70
2017-07-15T13:28:07.975Z,22.70
2017-07-15T13:30:35.472Z,22.60
2017-07-15T13:33:03.087Z,22.70
2017-07-15T13:35:30.650Z,22.90
2017-07-15T13:37:58.211Z,22.80
2017-07-15T13:40:25.771Z,22.90
2017-07-15T13:42:55.184Z,22.90
2017-07-15T13:45:22.712Z,22.90
2017-07-15T13:47:50.227Z,22.90
2017-07-15T13:50:17.956Z,22.90
2017-07-15T13:52:45.519Z,23.00
2017-07-15T13:55:13.048Z,23.00
2017-07-15T13:57:41.312Z,23.10
2017-07-15T14:00:08.887Z,23.10
2017-07-15T14:02:37.163Z,23.10
2017-07-15T14:05:05.431Z,23.10
2017-07-15T14:07:33.842Z,23.10
2017-07-15T14:10:01.411Z,23.10
2017-07-15T14:12:28.967Z,23.20
2017-07-15T14:14:56.535Z,23.20
2017-07-15T14:17:24.063Z,23.10
2017-07-15T14:19:51.587Z,23.00
2017-07-15T14:22:19.116Z,23.00
2017-07-15T14:24:46.680Z,23.10
2017-07-15T14:27:14.222Z,23.20
2017-07-15T14:29:41.792Z,23.20
2017-07-15T14:32:09.344Z,23.20
2017-07-15T14:34:36.846Z,23.20
2017-07-15T14:37:04.460Z,23.30
2017-07-15T14:39:32.023Z,23.40
2017-07-15T14:41:59.585Z,23.60
2017-07-15T14:44:27.143Z,23.80
2017-07-15T14:46:54.639Z,23.90
2017-07-15T14:49:22.163Z,24.00
2017-07-15T14:51:49.699Z,24.00
2017-07-15T14:54:17.387Z,23.80
2017-07-15T14:56:45.268Z,23.70
2017-07-15T14:59:12.771Z,23.50
2017-07-15T15:01:41.107Z,23.40
2017-07-15T15:04:08.612Z,23.40
2017-07-15T15:06:36.219Z,23.40
2017-07-15T15:09:03.758Z,23.40
2017-07-15T15:11:31.287Z,23.40
2017-07-15T15:13:58.882Z,23.40
2017-07-15T15:16:26.447Z,23.40
2017-07-15T15:18:54.007Z,23.40
2017-07-15T15:21:21.567Z,23.60
2017-07-15T15:23:49.127Z,23.70
2017-07-15T15:26:16.682Z,23.80
2017-07-15T15:28:44.247Z,23.80
2017-07-15T15:31:11.787Z,24.00
2017-07-15T15:33:40.087Z,24.20
2017-07-15T15:36:07.644Z,24.10
2017-07-15T15:38:35.206Z,24.30
2017-07-15T15:41:02.703Z,24.30
2017-07-15T15:43:30.248Z,24.10
2017-07-15T15:45:57.783Z,24.00
2017-07-15T15:48:25.304Z,23.90
2017-07-15T15:50:52.899Z,23.90
2017-07-15T15:53:20.460Z,24.00
2017-07-15T15:55:48.034Z,23.90
2017-07-15T15:58:15.587Z,24.10
2017-07-15T16:00:43.123Z,24.20
2017-07-15T16:03:11.420Z,24.20
2017-07-15T16:05:38.979Z,24.20
2017-07-15T16:08:06.539Z,24.20
2017-07-15T16:10:34.070Z,24.20
2017-07-15T16:13:02.363Z,24.00
2017-07-15T16:15:29.935Z,24.00
2017-07-15T16:17:57.716Z,23.90
2017-07-15T16:20:25.582Z,23.80
2017-07-15T16:22:53.449Z,23.80
2017-07-15T16:25:21.521Z,23.60
2017-07-15T16:27:49.390Z,23.70
2017-07-15T16:30:17.258Z,23.70
2017-07-15T16:32:45.063Z,23.70
2017-07-15T16:35:13.388Z,23.70
2017-07-15T16:37:41.099Z,23.70
2017-07-15T16:40:08.605Z,23.60
2017-07-15T16:42:36.099Z,23.60
2017-07-15T16:45:03.646Z,23.60
2017-07-15T16:47:31.188Z,23.60
2017-07-15T16:49:58.696Z,23.50
2017-07-15T16:52:26.224Z,23.40
2017-07-15T16:54:53.767Z,23.40
2017-07-15T16:57:21.323Z,23.30
2017-07-15T16:59:48.883Z,23.10
2017-07-15T17:02:16.550Z,23.10
2017-07-15T17:04:44.171Z,23.00
2017-07-15T17:07:11.766Z,23.00
2017-07-15T17:09:39.332Z,22.90
2017-07-15T17:12:06.952Z,22.70
2017-07-15T17:14:34.551Z,22.60
2017-07-15T17:17:02.111Z,22.50
2017-07-15T17:19:29.672Z,22.40
2017-07-15T17:21:57.243Z,22.40
2017-07-15T17:24:24.791Z,22.30
2017-07-15T17:26:52.292Z,22.20
2017-07-15T17:29:19.815Z,22.10
2017-07-15T17:31:47.340Z,22.00
2017-07-15T17:34:14.836Z,22.00
2017-07-15T17:36:42.378Z,21.90
2017-07-15T17:39:09.947Z,21.90
2017-07-15T17:41:37.448Z,21.90
2017-07-15T17:44:04.977Z,21.90
2017-07-15T17:46:32.523Z,21.90
2017-07-15T17:49:00.027Z,21.80
2017-07-15T17:51:27.540Z,21.80
2017-07-15T17:53:55.199Z,21.60
2017-07-15T17:56:22.702Z,21.60
2017-07-15T17:58:50.200Z,21.50
2017-07-15T18:01:18.488Z,21.40
2017-07-15T18:03:46.010Z,21.30
2017-07-15T18:06:13.615Z,21.30
2017-07-15T18:08:41.601Z,21.20
2017-07-15T18:11:09.131Z,21.10
2017-07-15T18:13:37.527Z,21.10
2017-07-15T18:16:05.028Z,21.00
2017-07-15T18:18:32.643Z,21.00
2017-07-15T18:21:00.142Z,20.90
2017-07-15T18:23:27.664Z,20.90
2017-07-15T18:25:56.247Z,20.80
2017-07-15T18:28:23.742Z,20.70
2017-07-15T18:30:51.362Z,20.70
2017-07-15T18:33:18.892Z,20.60
2017-07-15T18:35:47.304Z,20.50
2017-07-15T18:38:14.811Z,20.50
2017-07-15T18:40:42.320Z,20.50
2017-07-15T18:43:09.883Z,20.40
2017-07-15T18:45:37.383Z,20.40
2017-07-15T18:48:04.903Z,20.40
2017-07-15T18:50:32.427Z,20.30
2017-07-15T18:53:00.743Z,20.30
2017-07-15T18:55:28.294Z,20.20
2017-07-15T18:57:55.860Z,20.30
2017-07-15T19:00:23.415Z,20.20
2017-07-15T19:02:50.947Z,20.10
2017-07-15T19:05:19.260Z,20.10
2017-07-15T19:07:46.832Z,20.10
2017-07-15T19:10:14.331Z,20.10
2017-07-15T19:12:41.931Z,20.10
2017-07-15T19:15:09.500Z,20.10
2017-07-15T19:17:37.058Z,20.00
2017-07-15T19:20:04.715Z,20.00
2017-07-15T19:22:32.259Z,19.90
2017-07-15T19:24:59.759Z,19.90
2017-07-15T19:27:27.295Z,19.90
2017-07-15T19:29:54.955Z,19.90
2017-07-15T19:32:22.451Z,19.90
2017-07-15T19:34:49.950Z,19.80
2017-07-15T19:37:18.764Z,19.70
2017-07-15T19:39:46.295Z,19.70
2017-07-15T19:42:13.827Z,19.70
2017-07-15T19:44:42.308Z,19.70
2017-07-15T19:47:09.843Z,19.70
2017-07-15T19:49:37.336Z,19.60
2017-07-15T19:52:04.864Z,19.60
2017-07-15T19:54:32.395Z,19.60
2017-07-15T19:56:59.959Z,19.60
2017-07-15T19:59:27.456Z,19.60
2017-07-15T20:01:54.983Z,19.50
2017-07-15T20:04:22.540Z,19.50
2017-07-15T20:06:50.095Z,19.40
2017-07-15T20:09:17.759Z,19.40
2017-07-15T20:11:45.323Z,19.40
2017-07-15T20:14:12.823Z,19.40
2017-07-15T20:16:40.439Z,19.30
2017-07-15T20:19:07.936Z,19.30
2017-07-15T20:21:35.559Z,19.30
2017-07-15T20:24:03.116Z,19.30
2017-07-15T20:26:30.610Z,19.20
2017-07-15T20:28:58.235Z,19.20
2017-07-15T20:31:25.802Z,19.20
2017-07-15T20:33:53.364Z,19.20
2017-07-15T20:36:26.664Z,19.20
2017-07-15T20:38:54.211Z,19.20
2017-07-15T20:41:21.706Z,19.20
2017-07-15T20:43:49.332Z,19.20
2017-07-15T20:46:16.900Z,19.10
2017-07-15T20:48:44.435Z,19.10
2017-07-15T20:51:12.704Z,19.10
2017-07-15T20:53:57.659Z,19.10
2017-07-15T20:56:25.179Z,19.10
2017-07-15T20:58:52.714Z,19.00
2017-07-15T21:01:20.244Z,19.10
2017-07-15T21:03:48.550Z,19.00
2017-07-15T21:06:16.111Z,19.00
2017-07-15T21:08:43.672Z,19.00
2017-07-15T21:11:11.232Z,19.00
2017-07-15T21:13:38.792Z,18.90
2017-07-15T21:16:06.358Z,18.90
2017-07-15T21:18:33.887Z,18.90
2017-07-15T21:21:02.299Z,18.90
2017-07-15T21:23:29.855Z,18.90
2017-07-15T21:25:57.379Z,18.80
2017-07-15T21:28:25.675Z,18.80
2017-07-15T21:30:53.347Z,18.80
2017-07-15T21:33:20.912Z,18.80
2017-07-15T21:35:48.475Z,18.70
2017-07-15T21:38:16.032Z,18.70
2017-07-15T21:40:43.558Z,18.70
2017-07-15T21:43:11.971Z,18.70
2017-07-15T21:45:39.537Z,18.70
2017-07-15T21:48:07.188Z,18.60
2017-07-15T21:50:34.699Z,18.60
2017-07-15T21:53:02.429Z,18.70
2017-07-15T21:55:29.975Z,18.60
2017-07-15T21:57:57.536Z,18.60
2017-07-15T22:00:25.067Z,18.50
2017-07-15T22:02:53.336Z,18.50
2017-07-15T22:05:20.932Z,18.50
2017-07-15T22:07:48.430Z,18.50
2017-07-15T22:10:15.931Z,18.40
2017-07-15T22:12:44.223Z,18.40
2017-07-15T22:15:11.723Z,18.40
2017-07-15T22:17:39.251Z,18.40
2017-07-15T22:20:06.808Z,18.40
2017-07-15T22:22:34.367Z,18.40
2017-07-15T22:25:01.871Z,18.30
2017-07-15T22:27:29.483Z,18.30
2017-07-15T22:29:56.992Z,18.30
2017-07-15T22:32:24.489Z,18.30
2017-07-15T22:34:52.780Z,18.20
2017-07-15T22:37:20.339Z,18.20
2017-07-15T22:39:47.867Z,18.20
2017-07-15T22:42:16.175Z,18.20
2017-07-15T22:44:43.835Z,18.10
2017-07-15T22:47:11.395Z,18.20
2017-07-15T22:49:38.907Z,18.10
2017-07-15T22:52:07.247Z,18.10
2017-07-15T22:54:34.795Z,18.10
2017-07-15T22:57:02.290Z,18.10
2017-07-15T22:59:29.815Z,18.10
2017-07-15T23:01:57.319Z,18.10
2017-07-15T23:04:24.931Z,18.10
2017-07-15T23:06:52.591Z,18.00
2017-07-15T23:09:20.251Z,18.10
2017-07-15T23:11:47.823Z,18.10
2017-07-15T23:14:15.375Z,18.00
2017-07-15T23:16:42.899Z,18.10
2017-07-15T23:19:10.400Z,18.10
2017-07-15T23:21:37.952Z,18.00
2017-07-15T23:24:05.523Z,18.00
2017-07-15T23:26:33.079Z,18.00
2017-07-15T23:29:00.641Z,18.00
2017-07-15T23:31:28.295Z,18.00
2017-07-15T23:33:55.799Z,18.00
2017-07-15T23:36:23.296Z,18.00
2017-07-15T23:38:51.693Z,18.00
2017-07-15T23:41:19.259Z,18.00
2017-07-15T23:43:46.791Z,18.00
2017-07-15T23:46:15.195Z,18.00
2017-07-15T23:48:42.727Z,18.00
2017-07-15T23:51:11.031Z,18.00
2017-07-15T23:53:38.587Z,18.00
2017-07-15T23:56:06.116Z,18.00
2017-07-15T23:58:34.416Z,17.90
